createdAt,value
2018-02-13T00:01:49.263Z,13.13
2018-02-13T00:04:17.513Z,15.07
2018-02-13T00:06:46.307Z,12.40
2018-02-13T00:09:15.396Z,10.33
2018-02-13T00:11:44.114Z,13.07
2018-02-13T00:14:11.632Z,14.20
2018-02-13T00:16:39.951Z,12.43
2018-02-13T00:19:07.505Z,9.50
2018-02-13T00:21:35.072Z,10.63
2018-02-13T00:24:03.008Z,15.50
2018-02-13T00:26:31.413Z,13.63
2018-02-13T00:28:58.930Z,14.00
2018-02-13T00:31:27.248Z,14.43
2018-02-13T00:33:54.775Z,12.90
2018-02-13T00:36:23.084Z,12.47
2018-02-13T00:38:53.504Z,9.03
2018-02-13T00:41:21.067Z,13.07
2018-02-13T00:43:48.585Z,11.47
2018-02-13T00:46:16.872Z,11.10
2018-02-13T00:48:45.340Z,11.53
2018-02-13T00:51:13.623Z,16.77
2018-02-13T00:53:42.452Z,16.80
2018-02-13T00:56:09.998Z,15.67
2018-02-13T00:58:37.558Z,14.43
2018-02-13T01:01:05.077Z,16.20
2018-02-13T01:03:34.179Z,13.73
2018-02-13T01:06:02.487Z,11.93
2018-02-13T01:08:30.004Z,12.93
2018-02-13T01:10:58.325Z,14.23
2018-02-13T01:13:25.881Z,10.73
2018-02-13T01:15:53.418Z,15.03
2018-02-13T01:18:21.303Z,10.30
2018-02-13T01:20:48.822Z,15.30
2018-02-13T01:23:17.111Z,19.93
2018-02-13T01:25:45.395Z,14.77
2018-02-13T01:28:12.972Z,17.40
2018-02-13T01:30:41.200Z,13.33
2018-02-13T01:33:09.700Z,20.27
2018-02-13T01:35:38.186Z,13.73
2018-02-13T01:38:07.476Z,18.73
2018-02-13T01:40:35.989Z,14.27
2018-02-13T01:43:03.503Z,14.57
2018-02-13T01:45:31.817Z,13.47
2018-02-13T01:47:59.368Z,17.37
2018-02-13T01:50:26.936Z,13.73
2018-02-13T01:52:55.611Z,19.53
2018-02-13T01:55:23.181Z,17.30
2018-02-13T01:57:50.704Z,15.27
2018-02-13T02:00:19.016Z,11.23
2018-02-13T02:02:46.780Z,10.23
2018-02-13T02:05:14.337Z,11.93
2018-02-13T02:07:42.539Z,18.27
2018-02-13T02:10:10.378Z,13.97
2018-02-13T02:12:37.942Z,13.20
2018-02-13T02:15:05.526Z,16.50
2018-02-13T02:17:33.451Z,18.47
2018-02-13T02:20:00.972Z,15.53
2018-02-13T02:22:28.577Z,18.83
2018-02-13T02:24:56.143Z,15.73
2018-02-13T02:27:24.456Z,17.60
2018-02-13T02:29:51.971Z,21.67
2018-02-13T02:32:19.487Z,24.27
2018-02-13T02:34:47.038Z,18.50
2018-02-13T02:37:14.609Z,23.57
2018-02-13T02:39:43.085Z,22.20
2018-02-13T02:42:11.816Z,22.30
2018-02-13T02:44:39.944Z,25.03
2018-02-13T02:47:08.259Z,18.70
2018-02-13T02:49:36.351Z,19.13
2018-02-13T02:52:03.870Z,15.50
2018-02-13T02:54:31.512Z,19.03
2018-02-13T02:56:59.817Z,18.90
2018-02-13T02:59:27.816Z,16.93
2018-02-13T03:01:55.459Z,17.10
2018-02-13T03:04:23.599Z,17.37
2018-02-13T03:06:51.884Z,19.60
2018-02-13T03:09:19.444Z,15.13
2018-02-13T03:11:46.960Z,15.60
2018-02-13T03:14:14.488Z,18.23
2018-02-13T03:16:42.022Z,19.70
2018-02-13T03:19:09.540Z,26.50
2018-02-13T03:21:37.078Z,22.27
2018-02-13T03:24:04.610Z,25.27
2018-02-13T03:26:32.939Z,26.33
2018-02-13T03:29:01.184Z,23.73
2018-02-13T03:31:28.712Z,19.53
2018-02-13T03:33:56.275Z,19.60
2018-02-13T03:36:23.794Z,18.10
2018-02-13T03:38:52.081Z,18.00
2018-02-13T03:41:20.386Z,18.77
2018-02-13T03:43:48.324Z,22.07
2018-02-13T03:46:17.139Z,21.50
2018-02-13T03:48:45.273Z,17.70
2018-02-13T03:51:13.560Z,15.20
2018-02-13T03:53:41.836Z,15.20
2018-02-13T03:56:10.142Z,20.80
2018-02-13T03:58:37.672Z,25.83
2018-02-13T04:01:08.404Z,27.10
2018-02-13T04:03:37.628Z,24.30
2018-02-13T04:06:05.147Z,31.07
2018-02-13T04:08:33.948Z,22.73
2018-02-13T04:11:02.239Z,23.23
2018-02-13T04:13:29.760Z,21.43
2018-02-13T04:15:58.083Z,17.97
2018-02-13T04:18:25.649Z,22.80
2018-02-13T04:20:53.214Z,17.93
2018-02-13T04:23:20.714Z,24.13
2018-02-13T04:25:49.033Z,21.90
2018-02-13T04:28:16.594Z,17.53
2018-02-13T04:30:44.111Z,15.17
2018-02-13T04:33:12.402Z,14.83
2018-02-13T04:35:40.680Z,19.77
2018-02-13T04:38:08.968Z,15.70
2018-02-13T04:40:36.485Z,22.50
2018-02-13T04:43:04.020Z,22.93
2018-02-13T04:45:31.537Z,23.17
2018-02-13T04:48:00.491Z,29.77
2018-02-13T04:50:28.016Z,19.47
2018-02-13T04:52:55.528Z,24.60
2018-02-13T04:55:23.822Z,26.17
2018-02-13T04:57:51.800Z,21.30
2018-02-13T05:00:19.322Z,20.87
2018-02-13T05:02:47.621Z,24.70
2018-02-13T05:05:15.558Z,24.70
2018-02-13T05:07:43.878Z,19.33
2018-02-13T05:10:11.435Z,25.73
2018-02-13T05:12:38.964Z,17.83
2018-02-13T05:15:07.379Z,17.73
2018-02-13T05:17:34.895Z,16.63
2018-02-13T05:20:03.205Z,17.70
2018-02-13T05:22:30.731Z,19.80
2018-02-13T05:24:59.028Z,34.17
2018-02-13T05:27:26.557Z,40.20
2018-02-13T05:29:54.854Z,47.90
2018-02-13T05:32:23.156Z,57.80
2018-02-13T05:34:50.667Z,64.07
2018-02-13T05:37:18.966Z,54.00
2018-02-13T05:39:46.747Z,42.43
2018-02-13T05:42:14.264Z,36.50
2018-02-13T05:44:42.906Z,39.93
2018-02-13T05:47:10.420Z,35.33
2018-02-13T05:49:37.972Z,28.97
2018-02-13T05:52:08.758Z,23.40
2018-02-13T05:54:36.681Z,19.13
2018-02-13T05:57:04.962Z,21.00
2018-02-13T05:59:47.304Z,27.70
2018-02-13T06:02:14.834Z,24.97
2018-02-13T06:04:42.356Z,33.33
2018-02-13T06:07:09.881Z,28.83
2018-02-13T06:09:37.600Z,36.83
2018-02-13T06:12:06.428Z,40.43
2018-02-13T06:14:33.960Z,32.30
2018-02-13T06:17:01.479Z,37.33
2018-02-13T06:19:29.992Z,43.10
2018-02-13T06:21:57.527Z,37.83
2018-02-13T06:24:26.140Z,42.43
2018-02-13T06:26:53.655Z,39.93
2018-02-13T06:29:21.188Z,30.20
2018-02-13T06:31:48.721Z,32.67
2018-02-13T06:34:16.628Z,33.50
2018-02-13T06:36:44.159Z,26.80
2018-02-13T06:39:11.680Z,31.07
2018-02-13T06:41:39.958Z,27.03
2018-02-13T06:44:08.254Z,34.43
2018-02-13T06:46:36.031Z,25.10
2018-02-13T06:49:05.620Z,24.07
2018-02-13T06:51:34.391Z,24.27
2018-02-13T06:54:03.124Z,26.07
2018-02-13T06:56:30.642Z,26.20
2018-02-13T06:58:58.587Z,27.33
2018-02-13T07:01:26.878Z,28.93
2018-02-13T07:03:55.171Z,30.53
2018-02-13T07:06:22.695Z,34.73
2018-02-13T07:08:51.536Z,38.50
2018-02-13T07:11:19.079Z,28.30
2018-02-13T07:13:46.591Z,35.53
2018-02-13T07:16:14.109Z,31.43
2018-02-13T07:18:41.632Z,30.57
2018-02-13T07:21:09.157Z,36.53
2018-02-13T07:23:37.474Z,29.37
2018-02-13T07:26:06.880Z,27.17
2018-02-13T07:28:34.424Z,32.07
2018-02-13T07:31:05.180Z,25.80
2018-02-13T07:33:33.024Z,26.37
2018-02-13T07:36:00.563Z,25.47
2018-02-13T07:38:29.056Z,28.23
2018-02-13T07:40:57.877Z,24.50
2018-02-13T07:43:25.407Z,24.90
2018-02-13T07:45:53.692Z,25.53
2018-02-13T07:48:21.240Z,25.03
2018-02-13T07:50:49.524Z,28.17
2018-02-13T07:53:17.059Z,27.07
2018-02-13T07:55:46.061Z,29.13
2018-02-13T07:58:15.028Z,29.60
2018-02-13T08:00:44.976Z,23.70
2018-02-13T08:03:13.259Z,25.73
2018-02-13T08:05:40.796Z,26.20
2018-02-13T08:08:09.079Z,24.33
2018-02-13T08:10:37.366Z,25.50
2018-02-13T08:13:05.436Z,23.53
2018-02-13T08:15:32.956Z,26.53
2018-02-13T08:18:00.473Z,18.37
2018-02-13T08:20:29.345Z,20.07
2018-02-13T08:22:56.880Z,17.27
2018-02-13T08:25:25.599Z,21.63
2018-02-13T08:27:54.931Z,22.73
2018-02-13T08:30:22.472Z,24.43
2018-02-13T08:32:49.993Z,23.90
2018-02-13T08:35:19.026Z,18.97
2018-02-13T08:37:46.544Z,16.43
2018-02-13T08:40:14.065Z,21.43
2018-02-13T08:42:41.996Z,20.87
2018-02-13T08:45:09.519Z,13.73
2018-02-13T08:47:37.809Z,15.23
2018-02-13T08:50:06.165Z,11.70
2018-02-13T08:52:34.466Z,12.13
2018-02-13T08:55:01.981Z,9.73
2018-02-13T08:57:29.490Z,12.67
2018-02-13T08:59:57.008Z,10.70
2018-02-13T09:02:25.288Z,13.73
2018-02-13T09:04:53.581Z,11.00
2018-02-13T09:07:21.850Z,12.33
2018-02-13T09:09:51.585Z,11.97
2018-02-13T09:12:19.095Z,8.43
2018-02-13T09:14:47.095Z,10.93
2018-02-13T09:17:14.605Z,11.27
2018-02-13T09:19:42.303Z,11.07
2018-02-13T09:22:10.913Z,9.27
2018-02-13T09:24:38.428Z,10.20
2018-02-13T09:27:06.448Z,10.93
2018-02-13T09:29:33.971Z,9.87
2018-02-13T09:32:02.482Z,9.37
2018-02-13T09:34:29.997Z,13.43
2018-02-13T09:36:58.614Z,12.20
2018-02-13T09:39:26.332Z,10.63
2018-02-13T09:41:53.859Z,10.63
2018-02-13T09:44:21.372Z,16.17
2018-02-13T09:46:49.979Z,11.23
2018-02-13T09:49:17.495Z,8.77
2018-02-13T09:51:46.358Z,11.87
2018-02-13T09:54:14.446Z,10.33
2018-02-13T09:56:41.972Z,10.90
2018-02-13T09:59:09.513Z,13.40
2018-02-13T10:01:39.445Z,10.17
2018-02-13T10:04:07.556Z,9.60
2018-02-13T10:06:35.793Z,10.37
2018-02-13T10:09:03.308Z,11.43
2018-02-13T10:11:31.602Z,12.97
2018-02-13T10:13:59.651Z,7.63
2018-02-13T10:16:28.782Z,8.90
2018-02-13T10:18:56.290Z,10.17
2018-02-13T10:21:24.567Z,8.63
2018-02-13T10:23:52.857Z,14.07
2018-02-13T10:26:21.548Z,12.33
2018-02-13T10:28:50.724Z,7.63
2018-02-13T10:31:18.999Z,9.10
2018-02-13T10:33:47.620Z,9.00
2018-02-13T10:36:15.133Z,9.57
2018-02-13T10:38:42.641Z,9.73
2018-02-13T10:41:10.155Z,8.43
2018-02-13T10:43:38.982Z,10.87
2018-02-13T10:46:06.519Z,9.87
2018-02-13T10:48:34.476Z,8.73
2018-02-13T10:51:02.755Z,5.87
2018-02-13T10:53:31.064Z,7.97
2018-02-13T10:55:58.892Z,12.27
2018-02-13T10:58:27.846Z,5.57
2018-02-13T11:01:00.991Z,8.33
2018-02-13T11:03:28.500Z,8.80
2018-02-13T11:05:58.440Z,6.13
2018-02-13T11:08:26.718Z,7.90
2018-02-13T11:10:55.006Z,12.27
2018-02-13T11:13:23.316Z,6.10
2018-02-13T11:15:51.352Z,7.80
2018-02-13T11:18:19.627Z,5.40
2018-02-13T11:20:47.925Z,6.03
2018-02-13T11:23:15.897Z,9.50
2018-02-13T11:25:43.432Z,6.53
2018-02-13T11:28:12.345Z,6.30
2018-02-13T11:30:39.854Z,7.23
2018-02-13T11:33:07.373Z,11.10
2018-02-13T11:35:34.883Z,7.77
2018-02-13T11:38:03.161Z,5.20
2018-02-13T11:40:31.455Z,5.47
2018-02-13T11:42:58.973Z,3.90
2018-02-13T11:45:26.475Z,5.13
2018-02-13T11:47:54.000Z,3.70
2018-02-13T11:50:22.269Z,7.13
2018-02-13T11:52:51.167Z,5.80
2018-02-13T11:55:19.447Z,5.47
2018-02-13T11:57:47.721Z,4.30
2018-02-13T12:00:15.999Z,6.47
2018-02-13T12:02:44.275Z,4.73
2018-02-13T12:05:12.567Z,4.37
2018-02-13T12:07:41.952Z,8.87
2018-02-13T12:10:10.232Z,11.07
2018-02-13T12:12:38.523Z,6.37
2018-02-13T12:15:08.626Z,6.30
2018-02-13T12:17:37.478Z,3.90
2018-02-13T12:20:05.762Z,3.53
2018-02-13T12:22:33.272Z,3.77
2018-02-13T12:25:00.780Z,4.20
2018-02-13T12:27:28.866Z,5.53
2018-02-13T12:29:57.139Z,4.17
2018-02-13T12:32:25.422Z,3.57
2018-02-13T12:34:53.708Z,4.57
2018-02-13T12:37:21.625Z,7.83
2018-02-13T12:39:49.132Z,3.70
2018-02-13T12:42:16.661Z,6.10
2018-02-13T12:44:44.168Z,8.63
2018-02-13T12:47:11.674Z,6.70
2018-02-13T12:49:39.186Z,4.87
2018-02-13T12:52:07.252Z,4.10
2018-02-13T12:54:34.763Z,2.37
2018-02-13T12:57:03.048Z,2.73
2018-02-13T12:59:31.317Z,5.10
2018-02-13T13:01:59.367Z,4.50
2018-02-13T13:04:26.876Z,3.80
2018-02-13T13:06:54.416Z,4.47
2018-02-13T13:09:22.752Z,4.30
2018-02-13T13:11:50.276Z,5.23
2018-02-13T13:14:18.059Z,3.17
2018-02-13T13:16:45.564Z,2.57
2018-02-13T13:19:13.849Z,2.10
2018-02-13T13:21:42.140Z,2.23
2018-02-13T13:24:09.590Z,3.20
2018-02-13T13:26:37.029Z,3.50
2018-02-13T13:29:05.516Z,7.57
2018-02-13T13:31:33.741Z,5.67
2018-02-13T13:34:01.194Z,5.13
2018-02-13T13:36:29.157Z,4.97
2018-02-13T13:38:58.022Z,4.13
2018-02-13T13:41:25.464Z,3.50
2018-02-13T13:43:53.697Z,4.50
2018-02-13T13:46:21.581Z,3.10
2018-02-13T13:48:49.036Z,3.37
2018-02-13T13:51:16.493Z,4.63
2018-02-13T13:53:43.932Z,6.50
2018-02-13T13:56:11.393Z,4.70
2018-02-13T13:58:38.844Z,4.93
2018-02-13T14:01:06.841Z,2.30
2018-02-13T14:03:35.073Z,3.70
2018-02-13T14:06:02.737Z,3.83
2018-02-13T14:08:30.189Z,4.47
2018-02-13T14:10:57.636Z,3.37
2018-02-13T14:13:25.086Z,3.13
2018-02-13T14:15:52.527Z,4.27
2018-02-13T14:18:29.876Z,7.40
2018-02-13T14:20:57.341Z,2.13
2018-02-13T14:23:26.144Z,4.27
2018-02-13T14:25:54.380Z,2.53
2018-02-13T14:28:22.930Z,5.03
2018-02-13T14:30:50.369Z,4.70
2018-02-13T14:33:18.225Z,17.40
2018-02-13T14:35:46.453Z,3.80
2018-02-13T14:38:14.430Z,5.63
2018-02-13T14:40:42.313Z,4.33
2018-02-13T14:43:09.758Z,3.00
2018-02-13T14:45:39.130Z,2.50
2018-02-13T14:48:06.560Z,5.43
2018-02-13T14:50:34.005Z,3.07
2018-02-13T14:53:01.448Z,4.00
2018-02-13T14:55:29.661Z,7.33
2018-02-13T14:57:57.526Z,5.03
2018-02-13T15:00:24.967Z,1.70
2018-02-13T15:02:53.073Z,6.10
2018-02-13T15:05:20.526Z,2.70
2018-02-13T15:07:48.458Z,2.53
2018-02-13T15:10:15.904Z,6.90
2018-02-13T15:12:43.353Z,3.60
2018-02-13T15:15:12.004Z,5.30
2018-02-13T15:17:40.610Z,1.83
2018-02-13T15:20:08.062Z,5.23
2018-02-13T15:22:35.509Z,3.20
2018-02-13T15:25:03.486Z,5.40
2018-02-13T15:27:30.925Z,4.70
2018-02-13T15:29:58.378Z,7.10
2018-02-13T15:32:25.820Z,3.47
2018-02-13T15:34:53.289Z,5.77
2018-02-13T15:37:20.731Z,7.80
2018-02-13T15:39:48.172Z,6.00
2018-02-13T15:42:15.618Z,6.77
2018-02-13T15:44:45.590Z,5.20
2018-02-13T15:47:13.814Z,3.40
2018-02-13T15:49:41.268Z,3.17
2018-02-13T15:52:10.654Z,2.60
2018-02-13T15:54:38.869Z,6.97
2018-02-13T15:57:06.770Z,2.93
2018-02-13T15:59:34.985Z,2.67
2018-02-13T16:02:02.446Z,4.60
2018-02-13T16:04:30.308Z,7.90
2018-02-13T16:07:00.283Z,4.80
2018-02-13T16:09:28.434Z,8.00
2018-02-13T16:11:55.879Z,9.90
2018-02-13T16:14:24.134Z,5.23
2018-02-13T16:16:51.574Z,4.17
2018-02-13T16:19:19.052Z,3.43
2018-02-13T16:21:46.865Z,5.17
2018-02-13T16:24:14.390Z,3.77
2018-02-13T16:26:41.855Z,3.70
2018-02-13T16:29:13.013Z,6.13
2018-02-13T16:31:41.603Z,3.67
2018-02-13T16:34:09.041Z,5.63
2018-02-13T16:36:36.716Z,5.30
2018-02-13T16:39:04.676Z,4.37
2018-02-13T16:41:32.124Z,7.27
2018-02-13T16:43:59.565Z,4.80
2018-02-13T16:46:27.129Z,4.20
2018-02-13T16:48:55.126Z,5.77
2018-02-13T16:51:22.660Z,6.20
2018-02-13T16:53:50.121Z,5.57
2018-02-13T16:56:17.573Z,3.77
2018-02-13T16:58:45.440Z,3.03
2018-02-13T17:01:12.881Z,5.40
2018-02-13T17:03:40.345Z,4.17
2018-02-13T17:06:07.796Z,7.17
2018-02-13T17:08:36.389Z,3.53
2018-02-13T17:11:03.832Z,7.07
2018-02-13T17:13:31.297Z,7.57
2018-02-13T17:15:59.161Z,2.37
2018-02-13T17:18:26.902Z,5.83
2018-02-13T17:20:54.904Z,3.53
2018-02-13T17:23:22.359Z,5.03
2018-02-13T17:25:49.804Z,8.97
2018-02-13T17:28:17.812Z,3.90
2018-02-13T17:30:46.438Z,2.67
2018-02-13T17:33:14.425Z,8.27
2018-02-13T17:35:41.884Z,5.57
2018-02-13T17:38:09.336Z,4.63
2018-02-13T17:40:37.254Z,8.53
2018-02-13T17:43:06.017Z,6.73
2018-02-13T17:45:33.460Z,5.40
2018-02-13T17:48:01.760Z,6.93
2018-02-13T17:50:29.977Z,4.23
2018-02-13T17:52:57.989Z,4.60
2018-02-13T17:55:25.763Z,6.00
2018-02-13T17:57:53.482Z,7.43
2018-02-13T18:00:20.928Z,8.53
2018-02-13T18:02:48.377Z,6.23
2018-02-13T18:05:16.406Z,6.17
2018-02-13T18:07:43.854Z,9.63
2018-02-13T18:10:11.308Z,6.73
2018-02-13T18:12:38.776Z,12.73
2018-02-13T18:15:06.814Z,7.03
2018-02-13T18:17:34.261Z,9.30
2018-02-13T18:20:02.485Z,4.00
2018-02-13T18:22:30.697Z,4.80
2018-02-13T18:25:00.737Z,6.43
2018-02-13T18:27:28.638Z,6.80
2018-02-13T18:29:56.873Z,7.17
2018-02-13T18:32:24.378Z,2.90
2018-02-13T18:34:52.629Z,3.07
2018-02-13T18:37:20.884Z,7.43
2018-02-13T18:39:48.760Z,7.27
2018-02-13T18:42:16.310Z,6.07
2018-02-13T18:44:45.670Z,9.13
2018-02-13T18:47:13.120Z,7.30
2018-02-13T18:49:40.565Z,4.30
2018-02-13T18:54:36.260Z,6.50
2018-02-13T18:57:03.713Z,4.20
2018-02-13T18:59:31.264Z,6.47
2018-02-13T19:01:59.752Z,6.10
2018-02-13T19:04:27.199Z,5.70
2018-02-13T19:06:54.668Z,5.83
2018-02-13T19:09:22.109Z,3.80
2018-02-13T19:11:49.552Z,5.73
2018-02-13T19:14:17.017Z,10.53
2018-02-13T19:19:11.908Z,5.23
2018-02-13T19:21:39.369Z,6.53
2018-02-13T19:24:06.816Z,6.83
2018-02-13T19:26:34.264Z,4.40
2018-02-13T19:29:01.716Z,4.53
2018-02-13T19:31:29.165Z,6.80
2018-02-13T19:33:57.384Z,8.17
2018-02-13T19:36:24.832Z,6.40
2018-02-13T19:38:52.276Z,8.07
2018-02-13T19:41:19.733Z,7.57
2018-02-13T19:43:47.184Z,4.67
2018-02-13T19:46:14.666Z,7.40
2018-02-13T19:48:42.144Z,7.37
2018-02-13T19:51:09.592Z,6.80
2018-02-13T19:53:37.961Z,7.30
2018-02-13T19:56:05.521Z,5.53
2018-02-13T19:58:33.521Z,5.20
2018-02-13T20:01:00.993Z,6.80
2018-02-13T20:03:29.205Z,7.10
2018-02-13T20:05:57.517Z,4.13
2018-02-13T20:08:24.965Z,5.03
2018-02-13T20:10:53.437Z,6.50
2018-02-13T20:13:21.305Z,4.63
2018-02-13T20:15:48.861Z,6.83
2018-02-13T20:18:16.331Z,5.63
2018-02-13T20:20:43.803Z,4.07
2018-02-13T20:23:11.253Z,7.63
2018-02-13T20:25:38.696Z,5.10
2018-02-13T20:28:06.142Z,4.93
2018-02-13T20:30:33.589Z,5.90
2018-02-13T20:33:01.561Z,6.70
2018-02-13T20:35:29.121Z,4.50
2018-02-13T20:37:56.598Z,4.13
2018-02-13T20:40:24.033Z,5.10
2018-02-13T20:42:51.482Z,4.73
2018-02-13T20:45:18.949Z,3.60
2018-02-13T20:47:46.401Z,8.23
2018-02-13T20:50:13.873Z,5.43
2018-02-13T20:52:41.425Z,7.13
2018-02-13T20:55:08.881Z,3.80
2018-02-13T20:57:37.060Z,7.17
2018-02-13T21:00:06.402Z,7.83
2018-02-13T21:02:34.610Z,6.67
2018-02-13T21:05:02.057Z,5.67
2018-02-13T21:07:29.941Z,3.90
2018-02-13T21:09:57.390Z,8.40
2018-02-13T21:12:24.869Z,4.90
2018-02-13T21:14:53.212Z,5.43
2018-02-13T21:17:20.656Z,3.77
2018-02-13T21:19:48.113Z,9.43
2018-02-13T21:22:15.981Z,3.60
2018-02-13T21:24:43.439Z,7.03
2018-02-13T21:27:11.097Z,5.43
2018-02-13T21:29:38.566Z,10.77
2018-02-13T21:32:06.015Z,6.70
2018-02-13T21:34:34.299Z,9.40
2018-02-13T21:37:02.575Z,5.80
2018-02-13T21:39:30.055Z,6.83
2018-02-13T21:41:57.502Z,5.27
2018-02-13T21:44:28.727Z,6.77
2018-02-13T21:46:56.882Z,4.97
2018-02-13T21:49:24.330Z,7.77
2018-02-13T21:51:51.785Z,6.67
2018-02-13T21:54:19.246Z,5.80
2018-02-13T21:56:47.309Z,7.83
2018-02-13T21:59:15.531Z,9.70
2018-02-13T22:01:42.981Z,6.73
2018-02-13T22:04:10.431Z,9.67
2018-02-13T22:06:41.017Z,7.93
2018-02-13T22:09:09.633Z,10.20
2018-02-13T22:11:37.086Z,10.47
2018-02-13T22:14:04.551Z,8.07
2018-02-13T22:16:32.010Z,10.40
2018-02-13T22:18:59.458Z,9.07
2018-02-13T22:21:26.902Z,6.77
2018-02-13T22:23:54.353Z,8.27
2018-02-13T22:26:24.221Z,9.03
2018-02-13T22:28:51.680Z,7.87
2018-02-13T22:31:19.141Z,7.70
2018-02-13T22:33:46.594Z,9.20
2018-02-13T22:36:14.593Z,6.10
2018-02-13T22:38:42.801Z,8.13
2018-02-13T22:41:10.260Z,13.63
2018-02-13T22:43:38.542Z,9.93
2018-02-13T22:46:05.997Z,9.07
2018-02-13T22:48:33.443Z,7.23
2018-02-13T22:51:00.917Z,11.87
2018-02-13T22:53:28.913Z,8.80
2018-02-13T22:55:56.362Z,8.30
2018-02-13T22:58:23.813Z,5.43
2018-02-13T23:00:51.261Z,6.93
2018-02-13T23:03:19.321Z,9.00
2018-02-13T23:05:46.776Z,8.80
2018-02-13T23:08:14.649Z,8.30
2018-02-13T23:10:42.101Z,11.07
2018-02-13T23:13:09.552Z,7.73
2018-02-13T23:15:37.021Z,9.67
2018-02-13T23:18:04.479Z,8.23
2018-02-13T23:20:31.917Z,7.27
2018-02-13T23:22:59.376Z,7.03
2018-02-13T23:25:26.845Z,8.63
2018-02-13T23:27:54.840Z,9.50
2018-02-13T23:30:22.721Z,10.23
2018-02-13T23:32:50.940Z,11.67
2018-02-13T23:35:18.392Z,6.40
2018-02-13T23:37:45.845Z,9.57
2018-02-13T23:40:13.299Z,14.27
2018-02-13T23:42:40.757Z,8.93
2018-02-13T23:45:08.231Z,8.20
2018-02-13T23:47:36.086Z,7.93
2018-02-13T23:50:03.573Z,9.27
2018-02-13T23:52:31.313Z,11.73
2018-02-13T23:54:58.764Z,11.60
2018-02-13T23:57:26.212Z,10.50
2018-02-13T23:59:53.680Z,6.37
